CYEG/YEG METAR and TAF weather

Enter ICAO airport designator
Station Type Date Time Source
CYEG METAR 2018/10/16 21:00 UTC NOAA

CYEG 162100Z 30009KT 15SM FEW260 17/M04 A3018 RMK CI1 SLP240 DENSITY ALT 2900FT


Station Type Date Time Source
CYEG Decoded METAR 2018/10/16 21:00 UTC NOAA

Edmonton International, Alta., Canada (CYEG) 53-18N 113-35W 723M
Oct 16, 2018 - 05:00 PM EDT / 2018.10.16 2100 UTC
Wind: from the WNW (300 degrees) at 10 MPH (9 KT):0
Visibility: 15 mile(s):0
Sky conditions: mostly clear
Temperature: 62 F (17 C)
Dew Point: 24 F (-4 C)
Relative Humidity: 23%
Pressure (altimeter): 30.18 in. Hg (1022 hPa)
ob: CYEG 162100Z 30009KT 15SM FEW260 17/M04 A3018 RMK CI1 SLP240 DENSITY ALT 2900FT
cycle: 21

Station Type Date Time Source
CYEG TAF 2018/10/16 21:40 UTC NOAA

TAF CYEG 162038Z 1621/1718 28010G20KT P6SM FEW090
BECMG 1701/1703 22006KT
RMK NXT FCST BY 170000Z


Example: see airport list